Taunsa Weather



Taunsa's Current Weather

Temprature 27.71o few clouds

few clouds

Rain: 0 %

Min Temprature27.71o
Max Temprature27.71o
Humidity33
Wind Speed9.3 m/h
Sun Rise06:21:14
Sun Set17:43:46
Current Time: 18-Oct-2019 16:24:22
Lat/Lon: 30.7, 70.65




Taunsa's Geo Location



Taunsa's Weather Forecast

Time Overall Temp Min Temp Max Temp Humidity Wind Speed Rain
18-Oct-2019 (Fri)
17:00:00 few clouds 24.760 24.760 27.710 33 9.3 m/h 0 %
20:00:00 broken clouds 24.840 24.840 27.050 32 3.12 m/h 0 %
23:00:00 scattered clouds 22.880 22.880 24.358 42 2.64 m/h 0 %
19-Oct-2019 (Sat)
02:00:00 clear sky 23.150 23.150 23.888 38 2.85 m/h 0 %
05:00:00 clear sky 23.403 23.403 23.403 40 2.1 m/h 0 %
08:00:00 clear sky 24.821 24.821 24.821 38 1.74 m/h 0 %
11:00:00 clear sky 28.790 28.790 28.790 30 3.01 m/h 0 %
14:00:00 clear sky 31.086 31.086 31.086 24 2.04 m/h 0 %
17:00:00 clear sky 31.192 31.192 31.192 22 1.37 m/h 0 %
20:00:00 clear sky 28.568 28.568 28.568 29 2.03 m/h 0 %
23:00:00 clear sky 26.507 26.507 26.507 35 0.44 m/h 0 %
20-Oct-2019 (Sun)
02:00:00 clear sky 25.297 25.297 25.297 36 0.61 m/h 0 %
05:00:00 clear sky 23.964 23.964 23.964 39 0.28 m/h 0 %
08:00:00 scattered clouds 26.792 26.792 26.792 30 0.83 m/h 0 %
11:00:00 broken clouds 29.840 29.840 29.840 24 0.65 m/h 0 %
14:00:00 clear sky 32.382 32.382 32.382 19 2.37 m/h 0 %
17:00:00 clear sky 32.478 32.478 32.478 17 2.45 m/h 0 %
20:00:00 clear sky 28.622 28.622 28.622 25 0.42 m/h 0 %
23:00:00 clear sky 26.587 26.587 26.587 26 0.7 m/h 0 %
21-Oct-2019 (Mon)
02:00:00 clear sky 24.760 24.760 24.760 27 1.16 m/h 0 %
05:00:00 clear sky 23.051 23.051 23.051 29 0.84 m/h 0 %
08:00:00 clear sky 25.619 25.619 25.619 25 1.9 m/h 0 %
11:00:00 clear sky 29.897 29.897 29.897 20 2.97 m/h 0 %
14:00:00 scattered clouds 32.215 32.215 32.215 15 3.08 m/h 0 %
17:00:00 few clouds 32.064 32.064 32.064 14 1.61 m/h 0 %
20:00:00 scattered clouds 28.444 28.444 28.444 19 1.51 m/h 0 %
23:00:00 scattered clouds 26.340 26.340 26.340 23 1.21 m/h 0 %
22-Oct-2019 (Tue)
02:00:00 clear sky 24.486 24.486 24.486 26 1.38 m/h 0 %
05:00:00 clear sky 24.189 24.189 24.189 25 2.32 m/h 0 %
08:00:00 clear sky 26.672 26.672 26.672 22 2.62 m/h 0 %
11:00:00 clear sky 30.159 30.159 30.159 18 3.28 m/h 0 %
14:00:00 scattered clouds 32.329 32.329 32.329 13 1.95 m/h 0 %
17:00:00 broken clouds 32.132 32.132 32.132 14 0.1 m/h 0 %
20:00:00 clear sky 28.150 28.150 28.150 19 1.16 m/h 0 %
23:00:00 clear sky 26.449 26.449 26.449 20 2.67 m/h 0 %
23-Oct-2019 (Wed)
02:00:00 clear sky 24.586 24.586 24.586 24 0.64 m/h 0 %
05:00:00 clear sky 23.767 23.767 23.767 23 1.69 m/h 0 %
08:00:00 clear sky 26.339 26.339 26.339 20 1.82 m/h 0 %
11:00:00 clear sky 30.805 30.805 30.805 15 3.42 m/h 0 %
14:00:00 clear sky 32.279 32.279 32.279 13 4.08 m/h 0 %

Famous Cities (61)